Terminal Aerodrome Forecast
Issued by NWS

Home | Current Version | Previous Version | Graphics & Text | Print | Product List | Glossary On
Versions: 1 2 3 4 5 6 7 8 9 10 11 12 13 14 15 16 17 18 19 20 21 22 23 24 25 26 27
000
FTUS43 KGRB 101730
TAFCWA
TAF
KCWA 101730Z 1018/1118 32006KT P6SM BKN011 OVC025
     FM110000 VRB03KT P6SM BKN050
     FM110700 VRB03KT P6SM -SN OVC035
     FM110900 16003KT 3SM -SN OVC021
     FM111000 17003KT 2SM -SN OVC012
     FM111400 19003KT 1 1/2SM -SN OVC007=

USA.gov is the U.S. government's official web portal to all federal, state and local government web resources and services.